sensor_id;sensor_type;location;lat;lon;timestamp;pressure;altitude;pressure_sealevel;temperature;humidity
11413;BME280;5762;43.256;26.960;2023-11-18T00:01:03;98421.06;;;9.90;100.00
11413;BME280;5762;43.256;26.960;2023-11-18T00:03:32;98410.44;;;9.85;100.00
11413;BME280;5762;43.256;26.960;2023-11-18T00:06:01;98411.02;;;9.76;100.00
11413;BME280;5762;43.256;26.960;2023-11-18T00:08:30;98419.59;;;9.78;100.00
11413;BME280;5762;43.256;26.960;2023-11-18T00:10:59;98424.77;;;9.77;100.00
11413;BME280;5762;43.256;26.960;2023-11-18T00:13:28;98411.44;;;9.72;100.00
11413;BME280;5762;43.256;26.960;2023-11-18T00:15:57;98399.25;;;9.66;100.00
11413;BME280;5762;43.256;26.960;2023-11-18T00:18:26;98401.25;;;9.63;100.00
11413;BME280;5762;43.256;26.960;2023-11-18T00:20:54;98399.43;;;9.61;100.00
11413;BME280;5762;43.256;26.960;2023-11-18T00:23:24;98374.42;;;9.58;100.00
11413;BME280;5762;43.256;26.960;2023-11-18T00:25:52;98361.70;;;9.58;100.00
11413;BME280;5762;43.256;26.960;2023-11-18T00:28:21;98376.66;;;9.56;100.00
11413;BME280;5762;43.256;26.960;2023-11-18T00:30:50;98381.11;;;9.52;100.00
11413;BME280;5762;43.256;26.960;2023-11-18T00:33:18;98380.47;;;9.55;100.00
11413;BME280;5762;43.256;26.960;2023-11-18T00:35:47;98368.25;;;9.49;100.00
11413;BME280;5762;43.256;26.960;2023-11-18T00:38:16;98378.73;;;9.50;100.00
11413;BME280;5762;43.256;26.960;2023-11-18T00:40:45;98382.88;;;9.48;100.00
11413;BME280;5762;43.256;26.960;2023-11-18T00:43:14;98383.28;;;9.44;100.00
11413;BME280;5762;43.256;26.960;2023-11-18T00:45:43;98393.84;;;9.43;100.00
11413;BME280;5762;43.256;26.960;2023-11-18T00:48:11;98385.92;;;9.37;100.00
11413;BME280;5762;43.256;26.960;2023-11-18T00:50:40;98370.05;;;9.36;100.00
11413;BME280;5762;43.256;26.960;2023-11-18T00:53:09;98380.17;;;9.33;100.00
11413;BME280;5762;43.256;26.960;2023-11-18T00:55:37;98369.69;;;9.31;100.00
11413;BME280;5762;43.256;26.960;2023-11-18T00:58:06;98379.38;;;9.32;100.00
11413;BME280;5762;43.256;26.960;2023-11-18T01:00:35;98385.18;;;9.28;100.00
11413;BME280;5762;43.256;26.960;2023-11-18T01:03:03;98391.70;;;9.27;100.00
11413;BME280;5762;43.256;26.960;2023-11-18T01:05:33;98384.71;;;9.26;100.00
11413;BME280;5762;43.256;26.960;2023-11-18T01:08:01;98384.63;;;9.29;100.00
11413;BME280;5762;43.256;26.960;2023-11-18T01:10:30;98374.31;;;9.22;100.00
11413;BME280;5762;43.256;26.960;2023-11-18T01:12:59;98380.52;;;9.23;100.00
11413;BME280;5762;43.256;26.960;2023-11-18T01:15:28;98372.27;;;9.19;100.00
11413;BME280;5762;43.256;26.960;2023-11-18T01:17:57;98372.66;;;9.15;100.00
11413;BME280;5762;43.256;26.960;2023-11-18T01:20:26;98372.11;;;9.16;100.00
11413;BME280;5762;43.256;26.960;2023-11-18T01:22:54;98369.17;;;9.15;100.00
11413;BME280;5762;43.256;26.960;2023-11-18T01:25:23;98373.70;;;9.17;100.00
11413;BME280;5762;43.256;26.960;2023-11-18T01:27:52;98380.13;;;9.18;100.00
11413;BME280;5762;43.256;26.960;2023-11-18T01:30:21;98383.14;;;9.17;100.00
11413;BME280;5762;43.256;26.960;2023-11-18T01:32:49;98388.55;;;9.17;100.00
11413;BME280;5762;43.256;26.960;2023-11-18T01:35:18;98382.59;;;9.17;100.00
11413;BME280;5762;43.256;26.960;2023-11-18T01:37:47;98386.16;;;9.15;100.00
11413;BME280;5762;43.256;26.960;2023-11-18T01:40:16;98382.84;;;9.10;100.00
11413;BME280;5762;43.256;26.960;2023-11-18T01:42:45;98384.90;;;9.13;100.00
11413;BME280;5762;43.256;26.960;2023-11-18T01:45:15;98375.53;;;9.10;100.00
11413;BME280;5762;43.256;26.960;2023-11-18T01:47:44;98377.05;;;9.05;100.00
11413;BME280;5762;43.256;26.960;2023-11-18T01:50:13;98361.97;;;9.04;100.00
11413;BME280;5762;43.256;26.960;2023-11-18T01:52:43;98371.18;;;9.03;100.00
11413;BME280;5762;43.256;26.960;2023-11-18T01:55:13;98362.97;;;8.99;100.00
11413;BME280;5762;43.256;26.960;2023-11-18T01:57:41;98370.70;;;9.01;100.00
11413;BME280;5762;43.256;26.960;2023-11-18T02:00:09;98370.70;;;9.01;100.00
11413;BME280;5762;43.256;26.960;2023-11-18T02:02:39;98364.72;;;8.95;100.00
11413;BME280;5762;43.256;26.960;2023-11-18T02:05:08;98356.30;;;8.97;100.00
11413;BME280;5762;43.256;26.960;2023-11-18T02:07:36;98359.47;;;8.99;100.00
11413;BME280;5762;43.256;26.960;2023-11-18T02:10:05;98362.34;;;8.94;100.00
11413;BME280;5762;43.256;26.960;2023-11-18T02:15:09;98372.89;;;8.93;100.00
11413;BME280;5762;43.256;26.960;2023-11-18T02:17:39;98366.87;;;8.87;100.00
11413;BME280;5762;43.256;26.960;2023-11-18T02:20:09;98371.00;;;8.76;100.00
11413;BME280;5762;43.256;26.960;2023-11-18T02:22:45;98372.20;;;8.72;100.00
11413;BME280;5762;43.256;26.960;2023-11-18T02:25:17;98381.31;;;8.74;100.00
11413;BME280;5762;43.256;26.960;2023-11-18T02:27:46;98376.23;;;8.72;100.00
11413;BME280;5762;43.256;26.960;2023-11-18T02:30:15;98375.29;;;8.68;100.00
11413;BME280;5762;43.256;26.960;2023-11-18T02:35:16;98360.41;;;8.62;100.00
11413;BME280;5762;43.256;26.960;2023-11-18T02:37:47;98362.87;;;8.61;100.00
11413;BME280;5762;43.256;26.960;2023-11-18T02:40:24;98357.23;;;8.60;100.00
11413;BME280;5762;43.256;26.960;2023-11-18T02:42:46;98348.91;;;8.59;100.00
11413;BME280;5762;43.256;26.960;2023-11-18T02:45:16;98351.92;;;8.58;100.00
11413;BME280;5762;43.256;26.960;2023-11-18T02:47:45;98355.97;;;8.58;100.00
11413;BME280;5762;43.256;26.960;2023-11-18T02:50:14;98369.77;;;8.56;100.00
11413;BME280;5762;43.256;26.960;2023-11-18T02:52:43;98370.00;;;8.49;100.00
11413;BME280;5762;43.256;26.960;2023-11-18T02:55:11;98374.99;;;8.44;100.00
11413;BME280;5762;43.256;26.960;2023-11-18T02:57:40;98392.03;;;8.42;100.00
11413;BME280;5762;43.256;26.960;2023-11-18T03:00:09;98389.57;;;8.34;100.00
11413;BME280;5762;43.256;26.960;2023-11-18T03:02:38;98402.64;;;8.30;100.00
11413;BME280;5762;43.256;26.960;2023-11-18T03:05:07;98415.56;;;8.30;100.00
11413;BME280;5762;43.256;26.960;2023-11-18T03:07:36;98415.95;;;8.26;100.00
11413;BME280;5762;43.256;26.960;2023-11-18T03:10:05;98426.56;;;8.23;100.00
11413;BME280;5762;43.256;26.960;2023-11-18T03:12:35;98423.30;;;8.15;100.00
11413;BME280;5762;43.256;26.960;2023-11-18T03:15:06;98398.78;;;8.05;100.00
11413;BME280;5762;43.256;26.960;2023-11-18T03:17:36;98402.49;;;7.89;100.00
11413;BME280;5762;43.256;26.960;2023-11-18T03:20:05;98393.69;;;7.86;100.00
11413;BME280;5762;43.256;26.960;2023-11-18T03:22:34;98411.64;;;7.80;100.00
11413;BME280;5762;43.256;26.960;2023-11-18T03:25:03;98414.02;;;7.81;100.00
11413;BME280;5762;43.256;26.960;2023-11-18T03:27:32;98394.45;;;7.78;100.00
11413;BME280;5762;43.256;26.960;2023-11-18T03:30:01;98394.69;;;7.79;100.00
11413;BME280;5762;43.256;26.960;2023-11-18T03:32:30;98385.09;;;7.76;100.00
11413;BME280;5762;43.256;26.960;2023-11-18T03:34:58;98383.44;;;7.77;100.00
11413;BME280;5762;43.256;26.960;2023-11-18T03:37:27;98381.22;;;7.79;100.00
11413;BME280;5762;43.256;26.960;2023-11-18T03:39:56;98395.17;;;7.81;100.00
11413;BME280;5762;43.256;26.960;2023-11-18T03:42:25;98393.59;;;7.80;100.00
11413;BME280;5762;43.256;26.960;2023-11-18T03:44:54;98385.02;;;7.78;100.00
11413;BME280;5762;43.256;26.960;2023-11-18T03:47:23;98375.36;;;7.77;100.00
11413;BME280;5762;43.256;26.960;2023-11-18T03:49:52;98362.03;;;7.72;100.00
11413;BME280;5762;43.256;26.960;2023-11-18T03:52:23;98378.98;;;7.72;100.00
11413;BME280;5762;43.256;26.960;2023-11-18T03:54:52;98369.25;;;7.74;100.00
11413;BME280;5762;43.256;26.960;2023-11-18T03:57:21;98351.58;;;7.70;100.00
11413;BME280;5762;43.256;26.960;2023-11-18T03:59:49;98359.34;;;7.72;100.00
11413;BME280;5762;43.256;26.960;2023-11-18T04:02:17;98360.83;;;7.67;100.00
11413;BME280;5762;43.256;26.960;2023-11-18T04:04:46;98344.36;;;7.68;100.00
11413;BME280;5762;43.256;26.960;2023-11-18T04:07:14;98362.66;;;7.69;100.00
11413;BME280;5762;43.256;26.960;2023-11-18T04:09:44;98349.58;;;7.65;100.00
11413;BME280;5762;43.256;26.960;2023-11-18T04:12:12;98343.50;;;7.62;100.00
11413;BME280;5762;43.256;26.960;2023-11-18T04:14:42;98316.09;;;7.60;100.00
11413;BME280;5762;43.256;26.960;2023-11-18T04:17:10;98325.34;;;7.56;100.00
11413;BME280;5762;43.256;26.960;2023-11-18T04:19:40;98331.05;;;7.55;100.00
11413;BME280;5762;43.256;26.960;2023-11-18T04:22:09;98332.77;;;7.51;100.00
11413;BME280;5762;43.256;26.960;2023-11-18T04:24:38;98337.98;;;7.47;100.00
11413;BME280;5762;43.256;26.960;2023-11-18T04:27:07;98327.91;;;7.42;100.00
11413;BME280;5762;43.256;26.960;2023-11-18T04:29:35;98318.48;;;7.42;100.00
11413;BME280;5762;43.256;26.960;2023-11-18T04:32:05;98332.80;;;7.39;100.00
11413;BME280;5762;43.256;26.960;2023-11-18T04:34:35;98333.18;;;7.35;100.00
11413;BME280;5762;43.256;26.960;2023-11-18T04:37:03;98312.20;;;7.35;100.00
11413;BME280;5762;43.256;26.960;2023-11-18T04:39:33;98322.04;;;7.39;100.00
11413;BME280;5762;43.256;26.960;2023-11-18T04:42:02;98312.69;;;7.37;100.00
11413;BME280;5762;43.256;26.960;2023-11-18T04:44:31;98313.72;;;7.38;100.00
11413;BME280;5762;43.256;26.960;2023-11-18T04:47:00;98308.10;;;7.37;100.00
11413;BME280;5762;43.256;26.960;2023-11-18T04:49:28;98316.00;;;7.34;100.00
11413;BME280;5762;43.256;26.960;2023-11-18T04:51:56;98328.91;;;7.34;100.00
11413;BME280;5762;43.256;26.960;2023-11-18T04:54:26;98331.42;;;7.31;100.00
11413;BME280;5762;43.256;26.960;2023-11-18T04:56:55;98331.27;;;7.27;100.00
11413;BME280;5762;43.256;26.960;2023-11-18T04:59:24;98327.30;;;7.25;100.00
11413;BME280;5762;43.256;26.960;2023-11-18T05:01:53;98336.97;;;7.26;100.00
11413;BME280;5762;43.256;26.960;2023-11-18T05:04:21;98336.23;;;7.23;100.00
11413;BME280;5762;43.256;26.960;2023-11-18T05:06:49;98344.00;;;7.24;100.00
11413;BME280;5762;43.256;26.960;2023-11-18T05:09:18;98323.03;;;7.24;100.00
11413;BME280;5762;43.256;26.960;2023-11-18T05:11:47;98335.38;;;7.25;100.00
11413;BME280;5762;43.256;26.960;2023-11-18T05:14:15;98338.14;;;7.22;100.00
11413;BME280;5762;43.256;26.960;2023-11-18T05:16:45;98337.41;;;7.19;100.00
11413;BME280;5762;43.256;26.960;2023-11-18T05:19:14;98325.85;;;7.19;100.00
11413;BME280;5762;43.256;26.960;2023-11-18T05:21:43;98332.95;;;7.15;100.00
11413;BME280;5762;43.256;26.960;2023-11-18T05:24:12;98309.30;;;7.14;100.00
11413;BME280;5762;43.256;26.960;2023-11-18T05:26:41;98265.84;;;7.10;100.00
11413;BME280;5762;43.256;26.960;2023-11-18T05:29:09;98319.88;;;7.11;100.00
11413;BME280;5762;43.256;26.960;2023-11-18T05:31:38;98325.19;;;7.13;100.00
11413;BME280;5762;43.256;26.960;2023-11-18T05:34:07;98351.91;;;7.10;100.00
11413;BME280;5762;43.256;26.960;2023-11-18T05:36:36;98344.28;;;7.03;100.00
11413;BME280;5762;43.256;26.960;2023-11-18T05:39:05;98357.80;;;7.00;100.00
11413;BME280;5762;43.256;26.960;2023-11-18T05:41:34;98363.72;;;7.00;100.00
11413;BME280;5762;43.256;26.960;2023-11-18T05:44:03;98373.31;;;7.03;100.00
11413;BME280;5762;43.256;26.960;2023-11-18T05:46:32;98368.55;;;7.00;100.00
11413;BME280;5762;43.256;26.960;2023-11-18T05:49:03;98367.82;;;6.97;100.00
11413;BME280;5762;43.256;26.960;2023-11-18T05:51:36;98361.65;;;6.97;100.00
11413;BME280;5762;43.256;26.960;2023-11-18T05:54:04;98363.55;;;6.96;100.00
11413;BME280;5762;43.256;26.960;2023-11-18T05:56:33;98364.09;;;6.96;100.00
11413;BME280;5762;43.256;26.960;2023-11-18T05:59:02;98389.58;;;6.98;100.00
11413;BME280;5762;43.256;26.960;2023-11-18T06:01:31;98410.00;;;6.99;100.00
11413;BME280;5762;43.256;26.960;2023-11-18T06:03:59;98413.14;;;6.93;100.00
11413;BME280;5762;43.256;26.960;2023-11-18T06:06:29;98393.83;;;6.91;100.00
11413;BME280;5762;43.256;26.960;2023-11-18T06:08:57;98412.16;;;6.89;100.00
11413;BME280;5762;43.256;26.960;2023-11-18T06:11:26;98390.47;;;6.85;100.00
11413;BME280;5762;43.256;26.960;2023-11-18T06:13:56;98398.11;;;6.81;100.00
11413;BME280;5762;43.256;26.960;2023-11-18T06:16:24;98381.11;;;6.71;100.00
11413;BME280;5762;43.256;26.960;2023-11-18T06:18:54;98404.62;;;6.66;100.00
11413;BME280;5762;43.256;26.960;2023-11-18T06:21:24;98406.53;;;6.54;100.00
11413;BME280;5762;43.256;26.960;2023-11-18T06:23:53;98413.13;;;6.48;100.00
11413;BME280;5762;43.256;26.960;2023-11-18T06:26:23;98427.84;;;6.51;100.00
11413;BME280;5762;43.256;26.960;2023-11-18T06:28:54;98431.98;;;6.46;100.00
11413;BME280;5762;43.256;26.960;2023-11-18T06:31:23;98406.27;;;6.42;100.00
11413;BME280;5762;43.256;26.960;2023-11-18T06:33:52;98416.52;;;6.40;100.00
11413;BME280;5762;43.256;26.960;2023-11-18T06:36:21;98418.97;;;6.39;100.00
11413;BME280;5762;43.256;26.960;2023-11-18T06:38:51;98437.27;;;6.37;100.00
11413;BME280;5762;43.256;26.960;2023-11-18T06:41:20;98417.09;;;6.26;100.00
11413;BME280;5762;43.256;26.960;2023-11-18T06:43:52;98420.63;;;6.24;100.00
11413;BME280;5762;43.256;26.960;2023-11-18T06:46:25;98394.15;;;6.20;100.00
11413;BME280;5762;43.256;26.960;2023-11-18T06:48:54;98421.66;;;6.14;100.00
11413;BME280;5762;43.256;26.960;2023-11-18T06:51:24;98407.84;;;6.07;100.00
11413;BME280;5762;43.256;26.960;2023-11-18T06:53:53;98404.22;;;6.00;100.00
11413;BME280;5762;43.256;26.960;2023-11-18T06:56:25;98398.85;;;6.00;100.00
11413;BME280;5762;43.256;26.960;2023-11-18T06:58:54;98399.70;;;5.98;100.00
11413;BME280;5762;43.256;26.960;2023-11-18T07:01:22;98389.30;;;5.94;100.00
11413;BME280;5762;43.256;26.960;2023-11-18T07:03:51;98408.64;;;5.94;100.00
11413;BME280;5762;43.256;26.960;2023-11-18T07:06:20;98424.45;;;5.95;100.00
11413;BME280;5762;43.256;26.960;2023-11-18T07:08:48;98431.07;;;6.00;100.00
11413;BME280;5762;43.256;26.960;2023-11-18T07:11:18;98426.74;;;6.02;100.00
11413;BME280;5762;43.256;26.960;2023-11-18T07:13:47;98420.12;;;6.11;100.00
11413;BME280;5762;43.256;26.960;2023-11-18T07:16:16;98408.49;;;6.01;100.00
11413;BME280;5762;43.256;26.960;2023-11-18T07:18:45;98386.62;;;5.94;100.00
11413;BME280;5762;43.256;26.960;2023-11-18T07:21:13;98389.16;;;5.88;100.00
11413;BME280;5762;43.256;26.960;2023-11-18T07:23:42;98380.75;;;5.92;100.00
11413;BME280;5762;43.256;26.960;2023-11-18T07:26:11;98400.34;;;5.93;100.00
11413;BME280;5762;43.256;26.960;2023-11-18T07:28:43;98405.61;;;5.98;100.00
11413;BME280;5762;43.256;26.960;2023-11-18T07:31:12;98399.80;;;5.93;100.00
11413;BME280;5762;43.256;26.960;2023-11-18T07:33:41;98405.77;;;5.90;100.00
11413;BME280;5762;43.256;26.960;2023-11-18T07:36:10;98407.30;;;5.94;100.00
11413;BME280;5762;43.256;26.960;2023-11-18T07:38:39;98413.27;;;5.91;100.00
11413;BME280;5762;43.256;26.960;2023-11-18T07:41:07;98412.92;;;5.95;100.00
11413;BME280;5762;43.256;26.960;2023-11-18T07:43:35;98418.09;;;5.91;100.00
11413;BME280;5762;43.256;26.960;2023-11-18T07:46:05;98411.19;;;5.88;100.00
11413;BME280;5762;43.256;26.960;2023-11-18T07:48:34;98392.49;;;5.83;100.00
11413;BME280;5762;43.256;26.960;2023-11-18T07:51:03;98373.65;;;5.85;100.00
11413;BME280;5762;43.256;26.960;2023-11-18T07:53:32;98388.12;;;5.73;100.00
11413;BME280;5762;43.256;26.960;2023-11-18T07:56:01;98393.39;;;5.78;100.00
11413;BME280;5762;43.256;26.960;2023-11-18T07:58:30;98421.32;;;5.77;100.00
11413;BME280;5762;43.256;26.960;2023-11-18T08:00:58;98437.13;;;5.79;100.00
11413;BME280;5762;43.256;26.960;2023-11-18T08:03:27;98434.89;;;5.69;100.00
11413;BME280;5762;43.256;26.960;2023-11-18T08:05:56;98457.11;;;5.72;100.00
11413;BME280;5762;43.256;26.960;2023-11-18T08:08:25;98458.45;;;5.72;100.00
11413;BME280;5762;43.256;26.960;2023-11-18T08:10:54;98424.60;;;5.74;100.00
11413;BME280;5762;43.256;26.960;2023-11-18T08:13:23;98421.47;;;5.69;100.00
11413;BME280;5762;43.256;26.960;2023-11-18T08:15:51;98407.05;;;5.65;100.00
11413;BME280;5762;43.256;26.960;2023-11-18T08:18:20;98416.05;;;5.72;100.00
11413;BME280;5762;43.256;26.960;2023-11-18T08:20:49;98427.89;;;5.85;100.00
11413;BME280;5762;43.256;26.960;2023-11-18T08:23:18;98426.64;;;5.80;100.00
11413;BME280;5762;43.256;26.960;2023-11-18T08:25:47;98451.05;;;5.81;100.00
11413;BME280;5762;43.256;26.960;2023-11-18T08:28:16;98450.50;;;5.81;100.00
11413;BME280;5762;43.256;26.960;2023-11-18T08:30:45;98406.86;;;5.76;100.00
11413;BME280;5762;43.256;26.960;2023-11-18T08:33:13;98416.05;;;5.72;100.00
11413;BME280;5762;43.256;26.960;2023-11-18T08:35:42;98418.19;;;5.72;100.00
11413;BME280;5762;43.256;26.960;2023-11-18T08:38:11;98429.47;;;5.72;100.00
11413;BME280;5762;43.256;26.960;2023-11-18T08:40:39;98428.12;;;5.72;100.00
11413;BME280;5762;43.256;26.960;2023-11-18T08:43:08;98411.43;;;5.75;100.00
11413;BME280;5762;43.256;26.960;2023-11-18T08:45:38;98424.80;;;5.78;100.00
11413;BME280;5762;43.256;26.960;2023-11-18T08:48:07;98428.03;;;5.77;100.00
11413;BME280;5762;43.256;26.960;2023-11-18T08:50:36;98429.77;;;5.70;100.00
11413;BME280;5762;43.256;26.960;2023-11-18T08:53:05;98463.18;;;5.78;100.00
11413;BME280;5762;43.256;26.960;2023-11-18T08:55:34;98441.80;;;5.73;100.00
11413;BME280;5762;43.256;26.960;2023-11-18T08:58:19;98454.77;;;5.68;100.00
11413;BME280;5762;43.256;26.960;2023-11-18T09:00:50;98460.54;;;5.76;100.00
11413;BME280;5762;43.256;26.960;2023-11-18T09:03:24;98476.35;;;5.77;100.00
11413;BME280;5762;43.256;26.960;2023-11-18T09:05:52;98474.85;;;5.71;100.00
11413;BME280;5762;43.256;26.960;2023-11-18T09:08:30;98487.86;;;5.64;100.00
11413;BME280;5762;43.256;26.960;2023-11-18T09:11:01;98490.59;;;5.61;100.00
11413;BME280;5762;43.256;26.960;2023-11-18T09:13:31;98487.06;;;5.63;100.00
11413;BME280;5762;43.256;26.960;2023-11-18T09:15:59;98468.28;;;5.63;100.00
11413;BME280;5762;43.256;26.960;2023-11-18T09:18:28;98425.18;;;5.57;100.00
11413;BME280;5762;43.256;26.960;2023-11-18T09:20:58;98433.59;;;5.67;100.00
11413;BME280;5762;43.256;26.960;2023-11-18T09:23:28;98420.52;;;5.63;100.00
11413;BME280;5762;43.256;26.960;2023-11-18T09:25:57;98422.86;;;5.67;100.00
11413;BME280;5762;43.256;26.960;2023-11-18T09:28:27;98389.11;;;5.63;100.00
11413;BME280;5762;43.256;26.960;2023-11-18T09:30:56;98412.17;;;5.64;100.00
11413;BME280;5762;43.256;26.960;2023-11-18T09:33:26;98401.98;;;5.64;100.00
11413;BME280;5762;43.256;26.960;2023-11-18T09:36:07;98400.05;;;5.67;100.00
11413;BME280;5762;43.256;26.960;2023-11-18T09:38:30;98378.77;;;5.70;100.00
11413;BME280;5762;43.256;26.960;2023-11-18T09:40:59;98364.61;;;5.67;100.00
11413;BME280;5762;43.256;26.960;2023-11-18T09:43:30;98380.61;;;5.72;100.00
11413;BME280;5762;43.256;26.960;2023-11-18T09:46:06;98359.48;;;5.68;100.00
11413;BME280;5762;43.256;26.960;2023-11-18T09:48:45;98334.98;;;5.72;100.00
11413;BME280;5762;43.256;26.960;2023-11-18T09:51:09;98329.37;;;5.71;100.00
11413;BME280;5762;43.256;26.960;2023-11-18T09:53:38;98312.72;;;5.72;100.00
11413;BME280;5762;43.256;26.960;2023-11-18T09:56:08;98318.83;;;5.75;100.00
11413;BME280;5762;43.256;26.960;2023-11-18T09:58:40;98309.63;;;5.79;100.00
11413;BME280;5762;43.256;26.960;2023-11-18T10:01:07;98308.92;;;5.87;100.00
11413;BME280;5762;43.256;26.960;2023-11-18T10:03:36;98299.38;;;5.81;100.00
11413;BME280;5762;43.256;26.960;2023-11-18T10:06:06;98256.44;;;5.81;100.00
11413;BME280;5762;43.256;26.960;2023-11-18T10:08:35;98217.13;;;5.73;100.00
11413;BME280;5762;43.256;26.960;2023-11-18T10:11:05;98290.40;;;5.74;100.00
11413;BME280;5762;43.256;26.960;2023-11-18T10:13:34;98178.41;;;5.77;100.00
11413;BME280;5762;43.256;26.960;2023-11-18T10:16:04;98264.59;;;5.76;100.00
11413;BME280;5762;43.256;26.960;2023-11-18T10:18:33;98257.34;;;5.76;100.00
11413;BME280;5762;43.256;26.960;2023-11-18T10:21:02;98218.00;;;5.83;100.00
11413;BME280;5762;43.256;26.960;2023-11-18T10:23:32;98250.38;;;5.75;100.00
11413;BME280;5762;43.256;26.960;2023-11-18T10:26:01;98224.09;;;5.75;100.00
11413;BME280;5762;43.256;26.960;2023-11-18T10:28:31;98210.13;;;5.75;100.00
11413;BME280;5762;43.256;26.960;2023-11-18T10:31:01;98241.97;;;5.79;100.00
11413;BME280;5762;43.256;26.960;2023-11-18T10:33:30;98206.95;;;5.73;100.00
11413;BME280;5762;43.256;26.960;2023-11-18T10:35:59;98174.00;;;5.70;100.00
11413;BME280;5762;43.256;26.960;2023-11-18T10:38:31;98181.70;;;5.74;100.00
11413;BME280;5762;43.256;26.960;2023-11-18T10:41:00;98188.90;;;5.76;100.00
11413;BME280;5762;43.256;26.960;2023-11-18T10:43:29;98156.56;;;5.81;100.00
11413;BME280;5762;43.256;26.960;2023-11-18T10:46:08;98168.77;;;5.87;100.00
11413;BME280;5762;43.256;26.960;2023-11-18T10:48:44;98156.14;;;5.88;100.00
11413;BME280;5762;43.256;26.960;2023-11-18T10:51:10;98179.45;;;5.90;100.00
11413;BME280;5762;43.256;26.960;2023-11-18T10:53:40;98201.66;;;5.93;100.00
11413;BME280;5762;43.256;26.960;2023-11-18T10:56:30;98197.15;;;5.91;100.00
11413;BME280;5762;43.256;26.960;2023-11-18T10:58:39;98188.42;;;5.96;100.00
11413;BME280;5762;43.256;26.960;2023-11-18T11:01:08;98192.52;;;5.94;100.00
11413;BME280;5762;43.256;26.960;2023-11-18T11:06:16;98182.51;;;5.97;100.00
11413;BME280;5762;43.256;26.960;2023-11-18T11:08:45;98193.38;;;6.03;100.00
11413;BME280;5762;43.256;26.960;2023-11-18T11:11:14;98228.71;;;6.08;100.00
11413;BME280;5762;43.256;26.960;2023-11-18T11:13:44;98248.30;;;6.08;100.00
11413;BME280;5762;43.256;26.960;2023-11-18T11:16:13;98225.41;;;6.11;100.00
11413;BME280;5762;43.256;26.960;2023-11-18T11:18:44;98229.75;;;6.09;100.00
11413;BME280;5762;43.256;26.960;2023-11-18T11:21:13;98219.55;;;6.09;100.00
11413;BME280;5762;43.256;26.960;2023-11-18T11:23:55;98228.40;;;5.98;100.00
11413;BME280;5762;43.256;26.960;2023-11-18T11:26:40;98212.47;;;6.01;100.00
11413;BME280;5762;43.256;26.960;2023-11-18T11:31:41;98255.37;;;6.04;100.00
11413;BME280;5762;43.256;26.960;2023-11-18T11:34:17;98243.59;;;6.02;100.00
11413;BME280;5762;43.256;26.960;2023-11-18T11:36:44;98264.17;;;6.07;100.00
11413;BME280;5762;43.256;26.960;2023-11-18T11:39:12;98284.23;;;5.98;100.00
11413;BME280;5762;43.256;26.960;2023-11-18T11:41:50;98266.65;;;5.92;100.00
11413;BME280;5762;43.256;26.960;2023-11-18T11:44:17;98259.01;;;5.86;100.00
11413;BME280;5762;43.256;26.960;2023-11-18T11:46:48;98229.19;;;5.62;100.00
11413;BME280;5762;43.256;26.960;2023-11-18T11:49:17;98229.59;;;5.56;100.00
11413;BME280;5762;43.256;26.960;2023-11-18T11:51:52;98240.28;;;5.58;100.00
11413;BME280;5762;43.256;26.960;2023-11-18T11:54:24;98228.34;;;5.53;100.00
11413;BME280;5762;43.256;26.960;2023-11-18T11:56:52;98256.98;;;5.55;100.00
11413;BME280;5762;43.256;26.960;2023-11-18T12:02:13;98228.45;;;5.48;100.00
11413;BME280;5762;43.256;26.960;2023-11-18T12:04:44;98247.39;;;5.41;100.00
11413;BME280;5762;43.256;26.960;2023-11-18T12:07:12;98243.77;;;5.34;100.00
11413;BME280;5762;43.256;26.960;2023-11-18T12:09:42;98253.50;;;5.30;100.00
11413;BME280;5762;43.256;26.960;2023-11-18T12:12:17;98250.42;;;5.23;100.00
11413;BME280;5762;43.256;26.960;2023-11-18T12:14:49;98241.41;;;5.19;100.00
11413;BME280;5762;43.256;26.960;2023-11-18T12:17:19;98263.76;;;5.14;100.00
11413;BME280;5762;43.256;26.960;2023-11-18T12:19:51;98222.89;;;5.06;100.00
11413;BME280;5762;43.256;26.960;2023-11-18T12:22:26;98239.58;;;5.03;100.00
11413;BME280;5762;43.256;26.960;2023-11-18T12:35:29;98227.61;;;4.98;100.00
11413;BME280;5762;43.256;26.960;2023-11-18T12:38:14;98219.27;;;4.99;100.00
11413;BME280;5762;43.256;26.960;2023-11-18T12:40:46;98224.13;;;4.97;100.00
11413;BME280;5762;43.256;26.960;2023-11-18T12:43:12;98210.53;;;4.94;100.00
11413;BME280;5762;43.256;26.960;2023-11-18T12:45:42;98199.31;;;4.92;100.00
11413;BME280;5762;43.256;26.960;2023-11-18T12:48:14;98211.08;;;4.93;100.00
11413;BME280;5762;43.256;26.960;2023-11-18T12:50:43;98132.30;;;4.92;100.00
11413;BME280;5762;43.256;26.960;2023-11-18T12:53:12;98197.38;;;4.95;100.00
11413;BME280;5762;43.256;26.960;2023-11-18T12:55:41;98184.52;;;4.94;100.00
11413;BME280;5762;43.256;26.960;2023-11-18T12:58:09;98184.52;;;4.94;100.00
11413;BME280;5762;43.256;26.960;2023-11-18T13:00:43;98199.76;;;4.96;100.00
11413;BME280;5762;43.256;26.960;2023-11-18T13:03:08;98205.07;;;4.99;100.00
11413;BME280;5762;43.256;26.960;2023-11-18T13:05:37;98232.13;;;5.00;100.00
11413;BME280;5762;43.256;26.960;2023-11-18T13:08:06;98230.19;;;5.03;100.00
11413;BME280;5762;43.256;26.960;2023-11-18T13:10:35;98238.23;;;5.03;100.00
11413;BME280;5762;43.256;26.960;2023-11-18T13:13:04;98223.24;;;5.02;100.00
11413;BME280;5762;43.256;26.960;2023-11-18T13:15:33;98234.95;;;5.06;100.00
11413;BME280;5762;43.256;26.960;2023-11-18T13:18:03;98242.70;;;5.08;100.00
11413;BME280;5762;43.256;26.960;2023-11-18T13:20:34;98241.81;;;5.12;100.00
11413;BME280;5762;43.256;26.960;2023-11-18T13:23:03;98238.28;;;5.14;100.00
11413;BME280;5762;43.256;26.960;2023-11-18T13:25:32;98264.80;;;5.16;100.00
11413;BME280;5762;43.256;26.960;2023-11-18T13:28:03;98258.52;;;5.20;100.00
11413;BME280;5762;43.256;26.960;2023-11-18T13:30:30;98263.28;;;5.23;100.00
11413;BME280;5762;43.256;26.960;2023-11-18T13:33:00;98258.91;;;5.27;100.00
11413;BME280;5762;43.256;26.960;2023-11-18T13:35:29;98259.41;;;5.29;100.00